<?xml version="1.0" encoding="UTF-8"?>
<gpx version="1.1" creator="Endomondo.com" xsi:schemaLocation="http://www.topografix.com/GPX/1/1 http://www.topografix.com/GPX/1/1/gpx.xsd http://www.garmin.com/xmlschemas/GpxExtensions/v3 http://www.garmin.com/xmlschemas/GpxExtensionsv3.xsd http://www.garmin.com/xmlschemas/TrackPointExtension/v1 http://www.garmin.com/xmlschemas/TrackPointExtensionv1.xsd" xmlns="http://www.topografix.com/GPX/1/1" xmlns:gpxtpx="http://www.garmin.com/xmlschemas/TrackPointExtension/v1" xmlns:gpxx="http://www.garmin.com/xmlschemas/GpxExtensions/v3" xmlns:xsi="http://www.w3.org/2001/XMLSchema-instance">
 <metadata>
 <author>
 <name>Jan-Philippe Schilt</name>
 <email id="jp.schilt" domain="gmail.com"/>
 </author>
 <link href="http://www.endomondo.com">
 <text>Endomondo</text>
 </link>
 <time>2014-08-14T21:40:22Z</time>
 </metadata>
 <trk>
 <src>http://www.endomondo.com/</src>
 <link href="https://www.endomondo.com/workouts/362458303/1055794">
 <text>endomondo</text>
 </link>
 <type>CYCLING_TRANSPORTATION</type>
 <trkseg>
 <trkpt lat="51.240486" lon="6.771477">
 <time>2014-06-24T16:59:10Z</time>
 </trkpt>
 <trkpt lat="51.240486" lon="6.771477">
 <ele>89.0</ele>
 <time>2014-06-24T16:59:11Z</time>
 </trkpt>
 <trkpt lat="51.240043" lon="6.771551">
 <ele>87.0</ele>
 <time>2014-06-24T16:59:19Z</time>
 </trkpt>
 <trkpt lat="51.239688" lon="6.771637">
 <ele>86.0</ele>
 <time>2014-06-24T16:59:25Z</time>
 </trkpt>
 <trkpt lat="51.239456" lon="6.771993">
 <ele>84.0</ele>
 <time>2014-06-24T16:59:31Z</time>
 </trkpt>
 <trkpt lat="51.239549" lon="6.772595">
 <ele>86.0</ele>
 <time>2014-06-24T16:59:38Z</time>
 </trkpt>
 <trkpt lat="51.239539" lon="6.773148">
 <ele>86.0</ele>
 <time>2014-06-24T16:59:43Z</time>
 </trkpt>
 <trkpt lat="51.239668" lon="6.773791">
 <ele>85.0</ele>
 <time>2014-06-24T16:59:49Z</time>
 </trkpt>
 <trkpt lat="51.239803" lon="6.774328">
 <ele>85.0</ele>
 <time>2014-06-24T16:59:54Z</time>
 </trkpt>
 <trkpt lat="51.240035" lon="6.774932">
 <ele>87.0</ele>
 <time>2014-06-24T17:00:00Z</time>
 </trkpt>
 <trkpt lat="51.240121" lon="6.775524">
 <ele>87.0</ele>
 <time>2014-06-24T17:00:05Z</time>
 </trkpt>
 <trkpt lat="51.240041" lon="6.7761">
 <ele>84.0</ele>
 <time>2014-06-24T17:00:12Z</time>
 </trkpt>
 <trkpt lat="51.239579" lon="6.7766">
 <ele>82.0</ele>
 <time>2014-06-24T17:00:20Z</time>
 </trkpt>
 <trkpt lat="51.239026" lon="6.777001">
 <ele>89.0</ele>
 <time>2014-06-24T17:00:27Z</time>
 </trkpt>
 <trkpt lat="51.238707" lon="6.777429">
 <ele>86.0</ele>
 <time>2014-06-24T17:00:33Z</time>
 </trkpt>
 <trkpt lat="51.238357" lon="6.77778">
 <ele>84.0</ele>
 <time>2014-06-24T17:00:39Z</time>
 </trkpt>
 <trkpt lat="51.238124" lon="6.778174">
 <ele>84.0</ele>
 <time>2014-06-24T17:00:44Z</time>
 </trkpt>
 <trkpt lat="51.237723" lon="6.778587">
 <ele>86.0</ele>
 <time>2014-06-24T17:00:50Z</time>
 </trkpt>
 <trkpt lat="51.237558" lon="6.778826">
 <ele>86.0</ele>
 <time>2014-06-24T17:00:53Z</time>
 </trkpt>
 <trkpt lat="51.237307" lon="6.779047">
 <ele>81.0</ele>
 <time>2014-06-24T17:00:59Z</time>
 </trkpt>
 <trkpt lat="51.236934" lon="6.779479">
 <ele>80.0</ele>
 <time>2014-06-24T17:01:07Z</time>
 </trkpt>
 <trkpt lat="51.236721" lon="6.779867">
 <ele>80.0</ele>
 <time>2014-06-24T17:01:12Z</time>
 </trkpt>
 <trkpt lat="51.236319" lon="6.780384">
 <ele>80.0</ele>
 <time>2014-06-24T17:01:18Z</time>
 </trkpt>
 <trkpt lat="51.236022" lon="6.780917">
 <ele>78.0</ele>
 <time>2014-06-24T17:01:23Z</time>
 </trkpt>
 <trkpt lat="51.23565" lon="6.781467">
 <ele>77.0</ele>
 <time>2014-06-24T17:01:29Z</time>
 </trkpt>
 <trkpt lat="51.235473" lon="6.781692">
 <ele>76.0</ele>
 <time>2014-06-24T17:01:32Z</time>
 </trkpt>
 <trkpt lat="51.235275" lon="6.781946">
 <ele>82.0</ele>
 <time>2014-06-24T17:01:35Z</time>
 </trkpt>
 <trkpt lat="51.235039" lon="6.782296">
 <ele>78.0</ele>
 <time>2014-06-24T17:01:39Z</time>
 </trkpt>
 <trkpt lat="51.234888" lon="6.782579">
 <ele>77.0</ele>
 <time>2014-06-24T17:01:42Z</time>
 </trkpt>
 <trkpt lat="51.234721" lon="6.782752">
 <ele>77.0</ele>
 <time>2014-06-24T17:01:45Z</time>
 </trkpt>
 <trkpt lat="51.234567" lon="6.782972">
 <ele>75.0</ele>
 <time>2014-06-24T17:01:48Z</time>
 </trkpt>
 <trkpt lat="51.234261" lon="6.783456">
 <ele>72.0</ele>
 <time>2014-06-24T17:01:54Z</time>
 </trkpt>
 <trkpt lat="51.233937" lon="6.783824">
 <ele>69.0</ele>
 <time>2014-06-24T17:02:00Z</time>
 </trkpt>
 <trkpt lat="51.233762" lon="6.7841">
 <ele>70.0</ele>
 <time>2014-06-24T17:02:04Z</time>
 </trkpt>
 <trkpt lat="51.233683" lon="6.784561">
 <ele>73.0</ele>
 <time>2014-06-24T17:02:09Z</time>
 </trkpt>
 <trkpt lat="51.233418" lon="6.784872">
 <ele>64.0</ele>
 <time>2014-06-24T17:02:14Z</time>
 </trkpt>
 <trkpt lat="51.233074" lon="6.785425">
 <ele>64.0</ele>
 <time>2014-06-24T17:02:21Z</time>
 </trkpt>
 <trkpt lat="51.23287" lon="6.785961">
 <ele>69.0</ele>
 <time>2014-06-24T17:02:28Z</time>
 </trkpt>
 <trkpt lat="51.232705" lon="6.786258">
 <ele>68.0</ele>
 <time>2014-06-24T17:02:33Z</time>
 </trkpt>
 <trkpt lat="51.232656" lon="6.786488">
 <ele>70.0</ele>
 <time>2014-06-24T17:02:36Z</time>
 </trkpt>
 <trkpt lat="51.232561" lon="6.786726">
 <ele>72.0</ele>
 <time>2014-06-24T17:02:40Z</time>
 </trkpt>
 <trkpt lat="51.232447" lon="6.786917">
 <ele>68.0</ele>
 <time>2014-06-24T17:02:44Z</time>
 </trkpt>
 <trkpt lat="51.232248" lon="6.786902">
 <ele>75.0</ele>
 <time>2014-06-24T17:02:50Z</time>
 </trkpt>
 <trkpt lat="51.232246" lon="6.787126">
 <ele>74.0</ele>
 <time>2014-06-24T17:02:56Z</time>
 </trkpt>
 <trkpt lat="51.232193" lon="6.787587">
 <ele>78.0</ele>
 <time>2014-06-24T17:03:02Z</time>
 </trkpt>
 <trkpt lat="51.232004" lon="6.788287">
 <ele>81.0</ele>
 <time>2014-06-24T17:03:09Z</time>
 </trkpt>
 <trkpt lat="51.231761" lon="6.788675">
 <ele>79.0</ele>
 <time>2014-06-24T17:03:14Z</time>
 </trkpt>
 <trkpt lat="51.231695" lon="6.789038">
 <ele>80.0</ele>
 <time>2014-06-24T17:03:21Z</time>
 </trkpt>
 <trkpt lat="51.231695" lon="6.789038">
 <ele>80.0</ele>
 <time>2014-06-24T17:03:30Z</time>
 </trkpt>
 <trkpt lat="51.231695" lon="6.789038">
 <time>2014-06-24T17:03:30Z</time>
 </trkpt>
 </trkseg>
 <trkseg>
 <trkpt lat="51.231634" lon="6.789443">
 <ele>75.0</ele>
 <time>2014-06-24T17:03:50Z</time>
 </trkpt>
 <trkpt lat="51.231634" lon="6.789443">
 <time>2014-06-24T17:03:50Z</time>
 </trkpt>
 <trkpt lat="51.231597" lon="6.790119">
 <ele>73.0</ele>
 <time>2014-06-24T17:03:55Z</time>
 </trkpt>
 <trkpt lat="51.231456" lon="6.790827">
 <ele>78.0</ele>
 <time>2014-06-24T17:04:01Z</time>
 </trkpt>
 <trkpt lat="51.231309" lon="6.791323">
 <ele>79.0</ele>
 <time>2014-06-24T17:04:06Z</time>
 </trkpt>
 <trkpt lat="51.231075" lon="6.791786">
 <ele>79.0</ele>
 <time>2014-06-24T17:04:11Z</time>
 </trkpt>
 <trkpt lat="51.230967" lon="6.792339">
 <ele>83.0</ele>
 <time>2014-06-24T17:04:17Z</time>
 </trkpt>
 <trkpt lat="51.230879" lon="6.79293">
 <ele>90.0</ele>
 <time>2014-06-24T17:04:23Z</time>
 </trkpt>
 <trkpt lat="51.230776" lon="6.79319">
 <ele>88.0</ele>
 <time>2014-06-24T17:04:26Z</time>
 </trkpt>
 <trkpt lat="51.230645" lon="6.79348">
 <ele>94.0</ele>
 <time>2014-06-24T17:04:29Z</time>
 </trkpt>
 <trkpt lat="51.23045" lon="6.794057">
 <ele>94.0</ele>
 <time>2014-06-24T17:04:35Z</time>
 </trkpt>
 <trkpt lat="51.230324" lon="6.794551">
 <ele>92.0</ele>
 <time>2014-06-24T17:04:41Z</time>
 </trkpt>
 <trkpt lat="51.230108" lon="6.794921">
 <ele>87.0</ele>
 <time>2014-06-24T17:04:46Z</time>
 </trkpt>
 <trkpt lat="51.229957" lon="6.795277">
 <ele>86.0</ele>
 <time>2014-06-24T17:04:50Z</time>
 </trkpt>
 <trkpt lat="51.229732" lon="6.795545">
 <ele>89.0</ele>
 <time>2014-06-24T17:04:55Z</time>
 </trkpt>
 <trkpt lat="51.229537" lon="6.795754">
 <ele>97.0</ele>
 <time>2014-06-24T17:05:03Z</time>
 </trkpt>
 <trkpt lat="51.229621" lon="6.796065">
 <ele>102.0</ele>
 <time>2014-06-24T17:05:11Z</time>
 </trkpt>
 <trkpt lat="51.229586" lon="6.796394">
 <ele>99.0</ele>
 <time>2014-06-24T17:05:16Z</time>
 </trkpt>
 <trkpt lat="51.229597" lon="6.796864">
 <ele>96.0</ele>
 <time>2014-06-24T17:05:21Z</time>
 </trkpt>
 <trkpt lat="51.229713" lon="6.797516">
 <ele>99.0</ele>
 <time>2014-06-24T17:05:29Z</time>
 </trkpt>
 <trkpt lat="51.229831" lon="6.79796">
 <ele>94.0</ele>
 <time>2014-06-24T17:05:36Z</time>
 </trkpt>
 <trkpt lat="51.229749" lon="6.798386">
 <ele>94.0</ele>
 <time>2014-06-24T17:05:42Z</time>
 </trkpt>
 <trkpt lat="51.229503" lon="6.798429">
 <ele>91.0</ele>
 <time>2014-06-24T17:05:47Z</time>
 </trkpt>
 <trkpt lat="51.229256" lon="6.798636">
 <ele>92.0</ele>
 <time>2014-06-24T17:05:53Z</time>
 </trkpt>
 <trkpt lat="51.229256" lon="6.798636">
 <ele>92.0</ele>
 <time>2014-06-24T17:05:59Z</time>
 </trkpt>
 <trkpt lat="51.229256" lon="6.798636">
 <time>2014-06-24T17:05:59Z</time>
 </trkpt>
 </trkseg>
 <trkseg>
 <trkpt lat="51.229256" lon="6.798636">
 <time>2014-06-24T17:06:04Z</time>
 </trkpt>
 </trkseg>
 </trk>
</gpx>